< Typhoon 197320 1973 Season Typhoon 197401 >
Typhoon 197321 (VERA)
General InformationTrack Information on Google Maps || Disaster Info.ResourceGoogle EarthGE AnimationAtom FeedGeoJSON
Detalied Best Track (Time Zone = UTC)
Year Month Day Hour Lat. Long. Pressure (hPa) Wind (kt) Class Image Chart
1973 11 18 06 8.0 130.0 1002 0 2 -- Chart
1973 11 18 12 8.7 130.0 1002 0 2 -- Chart
1973 11 18 18 9.5 129.6 1002 0 2 -- Chart
1973 11 19 00 10.0 129.0 1002 0 2 -- Chart
1973 11 19 06 10.2 127.8 1002 0 2 -- Chart
1973 11 19 12 10.6 126.9 1000 0 2 -- Chart
1973 11 19 18 11.4 126.0 1000 0 2 -- Chart
1973 11 20 00 12.0 125.0 996 0 2 -- Chart
1973 11 20 06 11.6 124.0 996 0 2 -- Chart
1973 11 20 12 11.3 123.1 996 0 2 -- Chart
1973 11 20 18 11.3 122.6 996 0 2 -- Chart
1973 11 21 00 11.4 122.4 996 0 2 -- Chart
1973 11 21 06 11.5 122.3 996 0 2 -- Chart
1973 11 21 12 11.6 122.2 996 0 2 -- Chart
1973 11 21 18 12.0 122.0 996 0 2 -- Chart
1973 11 22 00 12.5 121.5 996 0 2 -- Chart
1973 11 22 06 12.6 120.5 994 0 2 -- Chart
1973 11 22 12 12.8 119.4 994 0 9 -- Chart
1973 11 22 18 13.0 118.4 994 0 9 -- Chart
1973 11 23 00 13.1 117.4 994 0 9 -- Chart
1973 11 23 06 13.1 117.3 994 0 9 -- Chart
1973 11 23 12 13.4 116.8 992 0 9 -- Chart
1973 11 23 18 14.0 116.2 990 0 9 -- Chart
1973 11 24 00 14.6 115.5 990 0 9 -- Chart
1973 11 24 06 15.2 114.8 994 0 9 -- Chart
1973 11 24 12 15.6 114.2 996 0 9 -- Chart
1973 11 24 18 16.0 113.6 996 0 9 -- Chart
1973 11 25 00 16.4 112.9 996 0 9 -- Chart
1973 11 25 06 16.6 112.0 1000 0 9 -- Chart
1973 11 25 12 17.0 111.0 1000 0 9 -- Chart
1973 11 25 18 17.6 110.8 1006 0 2 -- Chart
1973 11 26 00 18.2 111.2 1010 0 2 -- Chart
1973 11 26 06 18.1 111.5 1010 0 2 -- Chart
Japan Meteorological Agency Best Track Data | Correction Date : 1989-06-01
< Typhoon 197320 1973 Season Typhoon 197401 >

Help